首页
METAR-TAF:

METAR-TAF

机场 :

广州白云国际机场

广州, 中华人民共和国

纬度: 23-10N, 经度: 113-20E, 海拔: 8米

当前天气观测

该预报发布于28分钟前的02:00 UTC
风速2节,风向多变
温度 32°C
湿度 63%
气压 1003 hPa
能见度10公里或以上
散云层高于2000英尺
散云层高于5600英尺

METAR: ZGGG 190200Z VRB01MPS 9999 SCT020 SCT056 32/24 Q1003 NOSIG

时间: 10:28 (02:28 UTC)

预报

该预报发布于5小时和25分钟前的21:03 UTC
预报有效从19日的 00点(UTC)到 19日的 24点(UTC)
风速6节,风向南转南东
能見度: 8000
散云层高于4000英尺
短暂存在
从 19日的 00点(UTC)到 19日的 06点(UTC)
能見度: 2500
散云层高于3000英尺, 积雨云.
多云层高于3300英尺
雷暴, 雨
短暂存在
从 19日的 06点(UTC)到 19日的 12点(UTC)
能見度: 1500
散云层高于1100英尺
散云层高于3000英尺, 积雨云.
多云层高于3300英尺
雷暴, 雨

TAF: ZGGG 182103Z 1900/1924 16003MPS 8000 SCT040 TX33/1907Z TN27/1922Z TEMPO 1900/1906 2500 TSRA SCT030CB BKN033 TEMPO 1906/1912 1500 TSRA SCT011 SCT030CB BKN033

超过4000个机场的气象观测和天气预报(METAR&TAF报告)。

可查询的气象台以黄色和红色小点在地图上表示。

将鼠标移到小点上方,可查看气象台名称。

然后点击查看天气观测和预报。

如需切换地图:点击带黑十字的绿色按钮放大地图;点击带横线的绿色按钮缩小地图;或者点击绿色箭头查看邻近地区的地图。


METAR-TAF: